createdAt,value
2023-03-03T00:00:25.342Z,1.80
2023-03-03T00:02:52.680Z,1.80
2023-03-03T00:05:19.944Z,1.70
2023-03-03T00:07:48.093Z,1.70
2023-03-03T00:10:15.338Z,1.70
2023-03-03T00:12:50.238Z,1.70
2023-03-03T00:15:21.176Z,1.70
2023-03-03T00:17:49.181Z,1.60
2023-03-03T00:20:28.536Z,1.60
2023-03-03T00:22:56.908Z,1.60
2023-03-03T00:25:34.971Z,1.60
2023-03-03T00:28:16.549Z,1.60
2023-03-03T00:30:44.066Z,1.50
2023-03-03T00:33:20.498Z,1.50
2023-03-03T00:35:47.850Z,1.50
2023-03-03T00:38:18.518Z,1.50
2023-03-03T00:40:46.619Z,1.40
2023-03-03T00:43:23.909Z,1.40
2023-03-03T00:45:54.480Z,1.40
2023-03-03T00:48:24.975Z,1.40
2023-03-03T00:51:06.672Z,1.40
2023-03-03T00:53:33.908Z,1.40
2023-03-03T00:56:01.407Z,1.40
2023-03-03T00:58:29.600Z,1.40
2023-03-03T01:00:59.032Z,1.40
2023-03-03T01:03:36.819Z,1.30
2023-03-03T01:06:04.118Z,1.30
2023-03-03T01:08:33.367Z,1.30
2023-03-03T01:11:11.999Z,1.30
2023-03-03T01:13:42.965Z,1.20
2023-03-03T01:16:12.269Z,1.20
2023-03-03T01:18:41.837Z,1.20
2023-03-03T01:21:10.576Z,1.20
2023-03-03T01:23:39.835Z,1.20
2023-03-03T01:26:07.391Z,1.20
2023-03-03T01:28:35.202Z,1.10
2023-03-03T01:31:04.263Z,1.10
2023-03-03T01:33:32.603Z,1.10
2023-03-03T01:36:00.453Z,1.00
2023-03-03T01:38:28.206Z,1.00
2023-03-03T01:40:58.407Z,1.00
2023-03-03T01:43:32.904Z,0.90
2023-03-03T01:46:00.061Z,0.90
2023-03-03T01:48:37.938Z,0.90
2023-03-03T01:51:21.826Z,0.90
2023-03-03T01:54:05.286Z,0.80
2023-03-03T01:56:32.915Z,0.80
2023-03-03T01:59:07.425Z,0.80
2023-03-03T02:01:35.083Z,0.80
2023-03-03T02:04:02.682Z,0.70
2023-03-03T02:06:37.117Z,0.70
2023-03-03T02:09:15.008Z,0.70
2023-03-03T02:11:44.702Z,0.70
2023-03-03T02:14:13.039Z,0.70
2023-03-03T02:16:44.413Z,0.60
2023-03-03T02:20:03.358Z,0.70
2023-03-03T02:22:41.071Z,0.60
2023-03-03T02:25:14.524Z,0.60
2023-03-03T02:27:41.854Z,0.60
2023-03-03T02:30:16.707Z,0.60
2023-03-03T02:32:44.190Z,0.50
2023-03-03T02:35:46.682Z,0.50
2023-03-03T02:38:16.867Z,0.50
2023-03-03T02:41:15.962Z,0.50
2023-03-03T02:43:52.931Z,0.50
2023-03-03T02:46:20.775Z,0.40
2023-03-03T02:48:48.982Z,0.40
2023-03-03T02:51:16.670Z,0.40
2023-03-03T02:53:44.045Z,0.40
2023-03-03T02:56:11.675Z,0.40
2023-03-03T02:58:38.894Z,0.40
2023-03-03T03:01:06.329Z,0.40
2023-03-03T03:03:34.896Z,0.40
2023-03-03T03:06:05.002Z,0.40
2023-03-03T03:08:32.290Z,0.30
2023-03-03T03:11:00.780Z,0.30
2023-03-03T03:13:31.231Z,0.30
2023-03-03T03:15:59.694Z,0.30
2023-03-03T03:18:28.146Z,0.20
2023-03-03T03:20:57.496Z,0.20
2023-03-03T03:23:24.747Z,0.20
2023-03-03T03:25:52.031Z,0.20
2023-03-03T03:28:25.222Z,0.10
2023-03-03T03:30:52.897Z,0.10
2023-03-03T03:33:21.825Z,0.10
2023-03-03T03:35:50.631Z,0.10
2023-03-03T03:38:18.143Z,0.00
2023-03-03T03:40:45.405Z,0.00
2023-03-03T03:43:12.820Z,0.00
2023-03-03T03:45:42.910Z,0.00
2023-03-03T03:48:10.426Z,-0.10
2023-03-03T03:50:38.004Z,-0.10
2023-03-03T03:53:06.430Z,-0.10
2023-03-03T03:55:34.143Z,-0.10
2023-03-03T03:58:01.526Z,-0.10
2023-03-03T04:00:29.292Z,-0.20
2023-03-03T04:02:59.919Z,-0.10
2023-03-03T04:05:27.757Z,-0.20
2023-03-03T04:07:55.723Z,-0.20
2023-03-03T04:10:23.088Z,-0.20
2023-03-03T04:12:50.425Z,-0.20
2023-03-03T04:15:18.285Z,-0.20
2023-03-03T04:17:45.759Z,-0.20
2023-03-03T04:20:15.396Z,-0.20
2023-03-03T04:22:44.657Z,-0.20
2023-03-03T04:25:17.220Z,-0.30
2023-03-03T04:27:45.921Z,-0.30
2023-03-03T04:30:16.403Z,-0.30
2023-03-03T04:32:46.396Z,-0.30
2023-03-03T04:35:14.093Z,-0.40
2023-03-03T04:37:43.732Z,-0.40
2023-03-03T04:40:12.570Z,-0.40
2023-03-03T04:42:41.363Z,-0.40
2023-03-03T04:45:10.811Z,-0.50
2023-03-03T04:47:38.838Z,-0.40
2023-03-03T04:50:06.823Z,-0.50
2023-03-03T04:52:37.500Z,-0.50
2023-03-03T04:55:07.800Z,-0.40
2023-03-03T04:57:36.432Z,-0.50
2023-03-03T05:00:04.806Z,-0.50
2023-03-03T05:02:32.052Z,-0.50
2023-03-03T05:04:59.878Z,-0.50
2023-03-03T05:07:27.084Z,-0.60
2023-03-03T05:09:54.308Z,-0.60
2023-03-03T05:12:21.583Z,-0.60
2023-03-03T05:14:48.811Z,-0.60
2023-03-03T05:17:16.164Z,-0.70
2023-03-03T05:19:43.361Z,-0.60
2023-03-03T05:22:10.598Z,-0.60
2023-03-03T05:24:37.946Z,-0.70
2023-03-03T05:27:05.398Z,-0.70
2023-03-03T05:29:33.626Z,-0.70
2023-03-03T05:32:01.561Z,-0.70
2023-03-03T05:34:28.993Z,-0.70
2023-03-03T05:36:56.191Z,-0.70
2023-03-03T05:39:23.571Z,-0.70
2023-03-03T05:41:50.974Z,-0.70
2023-03-03T05:44:20.618Z,-0.70
2023-03-03T05:46:48.009Z,-0.70
2023-03-03T05:49:15.303Z,-0.70
2023-03-03T05:51:42.468Z,-0.70
2023-03-03T05:54:09.884Z,-0.70
2023-03-03T05:56:37.119Z,-0.70
2023-03-03T05:59:04.380Z,-0.70
2023-03-03T06:01:32.402Z,-0.70
2023-03-03T06:03:59.652Z,-0.70
2023-03-03T06:06:28.330Z,-0.70
2023-03-03T06:08:57.225Z,-0.70
2023-03-03T06:11:24.764Z,-0.70
2023-03-03T06:13:52.029Z,-0.60
2023-03-03T06:16:19.552Z,-0.70
2023-03-03T06:18:46.889Z,-0.70
2023-03-03T06:21:14.291Z,-0.70
2023-03-03T06:23:42.119Z,-0.60
2023-03-03T06:26:09.746Z,-0.60
2023-03-03T06:28:36.912Z,-0.50
2023-03-03T06:31:04.306Z,-0.50
2023-03-03T06:33:31.532Z,-0.40
2023-03-03T06:35:58.990Z,-0.30
2023-03-03T06:38:26.430Z,-0.20
2023-03-03T06:40:53.705Z,0.00
2023-03-03T06:43:21.048Z,0.20
2023-03-03T06:45:48.429Z,0.30
2023-03-03T06:48:15.808Z,0.40
2023-03-03T06:50:43.022Z,0.60
2023-03-03T06:53:15.884Z,0.70
2023-03-03T06:55:45.056Z,0.80
2023-03-03T06:58:20.933Z,1.00
2023-03-03T07:00:58.238Z,1.10
2023-03-03T07:03:44.429Z,1.30
2023-03-03T07:06:24.461Z,1.40
2023-03-03T07:08:53.181Z,1.50
2023-03-03T07:11:22.658Z,1.60
2023-03-03T07:13:51.929Z,1.70
2023-03-03T07:16:25.060Z,1.80
2023-03-03T07:19:05.406Z,1.90
2023-03-03T07:21:37.573Z,1.90
2023-03-03T07:24:31.562Z,2.00
2023-03-03T07:27:10.595Z,2.00
2023-03-03T07:29:41.409Z,1.90
2023-03-03T07:32:40.255Z,1.90
2023-03-03T07:35:43.879Z,1.80
2023-03-03T07:38:19.861Z,1.70
2023-03-03T07:40:53.661Z,1.80
2023-03-03T07:43:31.535Z,1.80
2023-03-03T07:46:14.427Z,1.80
2023-03-03T07:48:42.800Z,1.80
2023-03-03T07:51:42.510Z,1.90
2023-03-03T07:54:36.192Z,1.90
2023-03-03T07:57:13.398Z,1.90
2023-03-03T07:59:52.821Z,2.00
2023-03-03T08:02:43.932Z,2.00
2023-03-03T08:05:43.584Z,2.10
2023-03-03T08:08:13.442Z,2.10
2023-03-03T08:10:53.648Z,2.20
2023-03-03T08:13:28.888Z,2.40
2023-03-03T08:16:16.235Z,2.50
2023-03-03T08:18:49.265Z,2.60
2023-03-03T08:21:26.466Z,2.80
2023-03-03T08:23:54.374Z,3.00
2023-03-03T08:26:23.487Z,3.20
2023-03-03T08:28:51.482Z,3.30
2023-03-03T08:31:34.398Z,3.50
2023-03-03T08:34:06.741Z,3.60
2023-03-03T08:36:34.980Z,3.80
2023-03-03T08:39:03.915Z,3.80
2023-03-03T08:41:31.224Z,3.90
2023-03-03T08:43:58.651Z,4.00
2023-03-03T08:46:26.065Z,4.00
2023-03-03T08:48:53.348Z,4.00
2023-03-03T08:51:20.589Z,4.10
2023-03-03T08:53:47.764Z,4.30
2023-03-03T08:56:15.012Z,4.40
2023-03-03T08:59:01.262Z,4.40
2023-03-03T09:01:29.759Z,4.50
2023-03-03T09:03:57.123Z,4.70
2023-03-03T09:06:24.701Z,4.80
2023-03-03T09:08:52.092Z,4.90
2023-03-03T09:11:27.650Z,5.00
2023-03-03T09:14:03.177Z,5.20
2023-03-03T09:16:35.635Z,5.50
2023-03-03T09:19:27.890Z,5.70
2023-03-03T09:21:56.729Z,5.70
2023-03-03T09:24:30.087Z,5.90
2023-03-03T09:27:01.319Z,6.00
2023-03-03T09:29:31.129Z,6.00
2023-03-03T09:32:19.667Z,6.00
2023-03-03T09:34:47.913Z,6.00
2023-03-03T09:37:27.104Z,6.20
2023-03-03T09:39:58.585Z,6.20
2023-03-03T09:42:28.881Z,6.40
2023-03-03T09:45:15.319Z,6.40
2023-03-03T09:47:53.181Z,6.40
2023-03-03T09:50:30.357Z,6.60
2023-03-03T09:53:27.410Z,6.60
2023-03-03T09:56:09.356Z,6.70
2023-03-03T09:58:39.333Z,6.80
2023-03-03T10:01:27.895Z,6.90
2023-03-03T10:04:00.924Z,7.10
2023-03-03T10:06:38.161Z,7.10
2023-03-03T10:09:17.313Z,7.20
2023-03-03T10:11:57.130Z,7.50
2023-03-03T10:14:34.474Z,7.50
2023-03-03T10:17:25.888Z,7.70
2023-03-03T10:20:06.432Z,8.00
2023-03-03T10:22:56.111Z,8.10
2023-03-03T10:25:29.986Z,7.90
2023-03-03T10:28:30.331Z,8.20
2023-03-03T10:31:16.785Z,8.30
2023-03-03T10:33:48.264Z,8.60
2023-03-03T10:36:39.971Z,8.50
2023-03-03T10:39:35.093Z,8.80
2023-03-03T10:42:02.280Z,8.80
2023-03-03T10:44:41.428Z,8.90
2023-03-03T10:47:44.028Z,8.80
2023-03-03T10:50:42.089Z,9.00
2023-03-03T10:53:25.933Z,9.00
2023-03-03T10:56:17.874Z,9.20
2023-03-03T10:59:04.794Z,9.30
2023-03-03T11:02:12.425Z,9.30
2023-03-03T11:05:04.554Z,9.40
2023-03-03T11:07:52.245Z,9.80
2023-03-03T11:10:34.736Z,10.00
2023-03-03T11:13:13.701Z,10.10
2023-03-03T11:16:16.476Z,10.30
2023-03-03T11:19:24.686Z,10.40
2023-03-03T11:22:18.664Z,10.10
2023-03-03T11:25:01.526Z,10.00
2023-03-03T11:27:37.706Z,9.90
2023-03-03T11:30:26.524Z,10.50
2023-03-03T11:33:00.692Z,10.80
2023-03-03T11:36:09.262Z,10.90
2023-03-03T11:38:58.099Z,11.10
2023-03-03T11:41:34.258Z,11.00
2023-03-03T11:44:30.723Z,11.40
2023-03-03T11:47:04.480Z,11.70
2023-03-03T11:50:05.371Z,11.80
2023-03-03T11:52:44.474Z,12.00
2023-03-03T11:55:32.938Z,12.00
2023-03-03T11:58:25.162Z,12.00
2023-03-03T12:00:55.189Z,12.00
2023-03-03T12:03:35.957Z,12.20
2023-03-03T12:06:40.783Z,12.20
2023-03-03T12:09:35.329Z,12.80
2023-03-03T12:12:06.292Z,13.10
2023-03-03T12:14:33.460Z,13.30
2023-03-03T12:17:32.013Z,13.50
2023-03-03T12:20:23.532Z,12.60
2023-03-03T12:23:15.550Z,13.20
2023-03-03T12:26:00.838Z,13.10
2023-03-03T12:28:40.647Z,13.20
2023-03-03T12:31:23.512Z,12.80
2023-03-03T12:34:03.422Z,13.20
2023-03-03T12:36:33.506Z,14.00
2023-03-03T12:39:03.794Z,13.90
2023-03-03T12:42:05.235Z,14.50
2023-03-03T12:44:35.395Z,14.30
2023-03-03T12:47:13.824Z,14.70
2023-03-03T12:50:01.159Z,15.00
2023-03-03T12:52:51.633Z,15.20
2023-03-03T12:55:31.886Z,15.50
2023-03-03T12:58:08.009Z,16.90
2023-03-03T13:00:38.358Z,17.50
2023-03-03T13:03:11.839Z,18.70
2023-03-03T13:05:51.635Z,18.80
2023-03-03T13:08:21.966Z,19.40
2023-03-03T13:11:14.017Z,20.40
2023-03-03T13:14:17.892Z,20.10
2023-03-03T13:17:06.721Z,20.30
2023-03-03T13:20:01.207Z,20.00
2023-03-03T13:22:38.956Z,20.00
2023-03-03T13:25:35.468Z,21.30
2023-03-03T13:28:17.926Z,21.90
2023-03-03T13:30:50.389Z,22.50
2023-03-03T13:33:32.651Z,22.30
2023-03-03T13:36:09.666Z,22.70
2023-03-03T13:39:00.206Z,23.60
2023-03-03T13:41:36.574Z,23.30
2023-03-03T13:44:29.221Z,23.60
2023-03-03T13:47:34.176Z,22.70
2023-03-03T13:50:26.467Z,23.20
2023-03-03T13:53:27.565Z,23.90
2023-03-03T13:56:06.687Z,24.60
2023-03-03T13:58:56.382Z,24.50
2023-03-03T14:01:46.982Z,25.40
2023-03-03T14:04:48.467Z,25.60
2023-03-03T14:07:24.904Z,25.00
2023-03-03T14:10:27.626Z,24.80
2023-03-03T14:13:11.243Z,25.40
2023-03-03T14:15:48.878Z,24.60
2023-03-03T14:18:27.073Z,24.50
2023-03-03T14:20:57.146Z,25.20
2023-03-03T14:23:46.172Z,24.90
2023-03-03T14:26:13.906Z,24.90
2023-03-03T14:28:49.843Z,25.40
2023-03-03T14:31:28.950Z,25.00
2023-03-03T14:34:01.227Z,25.10
2023-03-03T14:36:32.770Z,26.10
2023-03-03T14:39:01.133Z,26.50
2023-03-03T14:41:41.908Z,26.90
2023-03-03T14:44:35.767Z,27.00
2023-03-03T14:47:25.134Z,26.50
2023-03-03T14:49:53.038Z,26.50
2023-03-03T14:52:24.112Z,26.70
2023-03-03T14:54:55.013Z,24.80
2023-03-03T14:57:36.129Z,24.20
2023-03-03T15:00:23.374Z,24.40
2023-03-03T15:03:19.918Z,24.40
2023-03-03T15:05:57.492Z,24.20
2023-03-03T15:08:36.061Z,24.90
2023-03-03T15:11:27.403Z,25.50
2023-03-03T15:14:12.233Z,23.70
2023-03-03T15:16:40.292Z,24.30
2023-03-03T15:19:28.728Z,23.50
2023-03-03T15:22:00.665Z,24.00
2023-03-03T15:24:43.688Z,23.60
2023-03-03T15:27:29.897Z,24.90
2023-03-03T15:30:15.777Z,24.70
2023-03-03T15:33:13.158Z,23.20
2023-03-03T15:35:49.325Z,22.90
2023-03-03T15:38:31.813Z,22.80
2023-03-03T15:41:05.966Z,23.60
2023-03-03T15:43:45.254Z,22.10
2023-03-03T15:46:35.649Z,21.80
2023-03-03T15:49:25.561Z,20.40
2023-03-03T15:52:21.572Z,21.00
2023-03-03T15:55:10.686Z,20.70
2023-03-03T15:58:05.534Z,20.50
2023-03-03T16:00:51.100Z,20.70
2023-03-03T16:03:28.249Z,20.40
2023-03-03T16:05:56.952Z,19.80
2023-03-03T16:08:55.783Z,19.30
2023-03-03T16:11:23.031Z,19.30
2023-03-03T16:13:59.584Z,18.00
2023-03-03T16:16:26.812Z,18.20
2023-03-03T16:19:07.242Z,17.90
2023-03-03T16:22:29.162Z,17.60
2023-03-03T16:25:16.017Z,17.20
2023-03-03T16:28:08.032Z,16.70
2023-03-03T16:30:55.433Z,16.40
2023-03-03T16:33:44.039Z,16.00
2023-03-03T16:36:28.122Z,15.40
2023-03-03T16:39:10.704Z,15.20
2023-03-03T16:41:50.252Z,14.00
2023-03-03T16:44:55.230Z,14.10
2023-03-03T16:47:31.738Z,13.70
2023-03-03T16:50:28.976Z,13.00
2023-03-03T16:53:15.064Z,12.20
2023-03-03T16:56:05.239Z,11.30
2023-03-03T16:58:59.405Z,10.60
2023-03-03T17:01:35.445Z,9.90
2023-03-03T17:04:15.173Z,9.30
2023-03-03T17:07:00.428Z,8.90
2023-03-03T17:09:51.087Z,8.50
2023-03-03T17:12:30.250Z,8.20
2023-03-03T17:15:31.380Z,8.00
2023-03-03T17:18:40.595Z,7.70
2023-03-03T17:21:37.175Z,7.40
2023-03-03T17:24:13.469Z,7.20
2023-03-03T17:26:59.284Z,7.10
2023-03-03T17:29:39.930Z,6.90
2023-03-03T17:32:32.207Z,6.80
2023-03-03T17:35:17.923Z,6.60
2023-03-03T17:38:22.275Z,6.50
2023-03-03T17:40:55.591Z,6.40
2023-03-03T17:43:48.975Z,6.30
2023-03-03T17:46:39.006Z,6.20
2023-03-03T17:49:43.806Z,6.10
2023-03-03T17:52:23.888Z,6.00
2023-03-03T17:55:43.451Z,5.90
2023-03-03T17:58:33.196Z,5.80
2023-03-03T18:01:27.157Z,5.80
2023-03-03T18:04:15.738Z,5.70
2023-03-03T18:06:56.934Z,5.60
2023-03-03T18:10:01.893Z,5.60
2023-03-03T18:12:44.207Z,5.50
2023-03-03T18:15:46.644Z,5.40
2023-03-03T18:18:32.854Z,5.40
2023-03-03T18:21:09.064Z,5.30
2023-03-03T18:23:41.657Z,5.20
2023-03-03T18:26:43.131Z,5.20
2023-03-03T18:29:10.303Z,5.10
2023-03-03T18:31:52.558Z,5.00
2023-03-03T18:34:34.858Z,5.00
2023-03-03T18:37:04.098Z,4.90
2023-03-03T18:39:41.911Z,4.80
2023-03-03T18:42:11.892Z,4.80
2023-03-03T18:44:39.549Z,4.80
2023-03-03T18:47:07.162Z,4.70
2023-03-03T18:49:49.165Z,4.70
2023-03-03T18:52:24.010Z,4.70
2023-03-03T18:55:14.300Z,4.60
2023-03-03T18:58:20.800Z,4.60
2023-03-03T19:01:00.567Z,4.60
2023-03-03T19:03:45.049Z,4.60
2023-03-03T19:06:28.706Z,4.50
2023-03-03T19:08:58.553Z,4.50
2023-03-03T19:11:54.326Z,4.50
2023-03-03T19:14:30.356Z,4.50
2023-03-03T19:17:23.326Z,4.50
2023-03-03T19:20:02.269Z,4.40
2023-03-03T19:22:31.373Z,4.40
2023-03-03T19:25:22.554Z,4.40
2023-03-03T19:28:04.480Z,4.40
2023-03-03T19:31:02.926Z,4.30
2023-03-03T19:33:34.184Z,4.30
2023-03-03T19:36:38.986Z,4.20
2023-03-03T19:39:27.729Z,4.20
2023-03-03T19:42:15.327Z,4.10
2023-03-03T19:44:42.544Z,4.10
2023-03-03T19:47:19.938Z,4.00
2023-03-03T19:50:32.034Z,3.90
2023-03-03T19:53:34.247Z,3.90
2023-03-03T19:56:10.330Z,3.80
2023-03-03T19:59:20.421Z,3.70
2023-03-03T20:01:52.854Z,3.60
2023-03-03T20:04:38.255Z,3.60
2023-03-03T20:07:33.899Z,3.50
2023-03-03T20:10:15.581Z,3.40
2023-03-03T20:12:48.052Z,3.30
2023-03-03T20:15:19.822Z,3.30
2023-03-03T20:18:35.105Z,3.20
2023-03-03T20:21:07.889Z,3.20
2023-03-03T20:23:44.059Z,3.20
2023-03-03T20:26:27.340Z,3.20
2023-03-03T20:29:12.270Z,3.10
2023-03-03T20:31:42.053Z,3.10
2023-03-03T20:34:22.994Z,3.00
2023-03-03T20:37:01.686Z,3.00
2023-03-03T20:39:34.731Z,2.90
2023-03-03T20:42:07.589Z,2.90
2023-03-03T20:45:16.920Z,2.80
2023-03-03T20:48:00.735Z,2.80
2023-03-03T20:50:35.397Z,2.70
2023-03-03T20:53:11.176Z,2.60
2023-03-03T20:55:49.221Z,2.60
2023-03-03T20:58:40.554Z,2.50
2023-03-03T21:01:15.699Z,2.40
2023-03-03T21:03:45.439Z,2.40
2023-03-03T21:06:15.685Z,2.40
2023-03-03T21:08:48.699Z,2.30
2023-03-03T21:11:18.981Z,2.30
2023-03-03T21:13:48.921Z,2.20
2023-03-03T21:16:16.207Z,2.20
2023-03-03T21:18:55.335Z,2.10
2023-03-03T21:21:22.806Z,2.10
2023-03-03T21:23:50.795Z,2.00
2023-03-03T21:26:52.022Z,2.00
2023-03-03T21:29:34.696Z,1.90
2023-03-03T21:32:03.501Z,1.90
2023-03-03T21:34:33.464Z,1.80
2023-03-03T21:37:03.035Z,1.80
2023-03-03T21:39:36.985Z,1.70
2023-03-03T21:42:07.207Z,1.70
2023-03-03T21:44:41.944Z,1.70
2023-03-03T21:47:12.628Z,1.60
2023-03-03T21:49:43.667Z,1.60
2023-03-03T21:52:12.398Z,1.50
2023-03-03T21:54:40.246Z,1.50
2023-03-03T21:57:07.654Z,1.50
2023-03-03T21:59:35.095Z,1.50
2023-03-03T22:02:02.375Z,1.40
2023-03-03T22:04:29.966Z,1.30
2023-03-03T22:06:57.211Z,1.30
2023-03-03T22:09:24.469Z,1.30
2023-03-03T22:11:51.692Z,1.20
2023-03-03T22:14:19.017Z,1.20
2023-03-03T22:16:46.420Z,1.10
2023-03-03T22:19:13.795Z,1.10
2023-03-03T22:21:41.266Z,1.10
2023-03-03T22:24:08.918Z,1.00
2023-03-03T22:26:36.308Z,1.00
2023-03-03T22:29:03.745Z,1.00
2023-03-03T22:31:31.185Z,0.90
2023-03-03T22:33:58.493Z,0.90
2023-03-03T22:36:25.924Z,0.90
2023-03-03T22:38:53.337Z,0.80
2023-03-03T22:41:20.692Z,0.80
2023-03-03T22:43:48.237Z,0.80
2023-03-03T22:46:15.467Z,0.70
2023-03-03T22:48:42.717Z,0.70
2023-03-03T22:51:09.955Z,0.60
2023-03-03T22:53:37.159Z,0.60
2023-03-03T22:56:04.646Z,0.60
2023-03-03T22:58:31.920Z,0.50
2023-03-03T23:00:59.173Z,0.40
2023-03-03T23:03:26.495Z,0.40
2023-03-03T23:05:54.032Z,0.40
2023-03-03T23:08:21.358Z,0.40
2023-03-03T23:10:49.165Z,0.30
2023-03-03T23:13:16.818Z,0.30
2023-03-03T23:15:44.085Z,0.20
2023-03-03T23:18:11.416Z,0.20
2023-03-03T23:20:38.836Z,0.20
2023-03-03T23:23:06.024Z,0.20
2023-03-03T23:25:34.443Z,0.20
2023-03-03T23:28:01.624Z,0.20
2023-03-03T23:30:28.946Z,0.10
2023-03-03T23:32:56.154Z,0.10
2023-03-03T23:35:23.461Z,0.10
2023-03-03T23:37:50.809Z,0.10
2023-03-03T23:40:18.196Z,0.10
2023-03-03T23:42:45.522Z,0.10
2023-03-03T23:45:13.688Z,0.00
2023-03-03T23:47:41.111Z,0.00
2023-03-03T23:50:10.122Z,0.00
2023-03-03T23:52:37.349Z,-0.10
2023-03-03T23:55:06.274Z,-0.10
2023-03-03T23:57:33.609Z,-0.20
